Time;durP1;ratioP1;P1;durP2;ratioP2;P2;SDS_P1;SDS_P2;PMS_P1;PMS_P2;Temp;Humidity;BMP_temperature;BMP_pressure;BME280_temperature;BME280_humidity;BME280_pressure;Samples;Min_cycle;Max_cycle;Signal;HPM_P1;HPM_P2
2024/03/18 00:01:23;;;;;;;;;;;;;;;8.09;100.00;101148.19;6185439;23;19912;-73
2024/03/18 00:03:48;;;;;;;;;;;;;;;8.22;100.00;101166.41;6185219;23;19916;-73
2024/03/18 00:06:13;;;;;;;;;;;;;;;8.14;100.00;101153.03;6183813;23;19923;-73
2024/03/18 00:08:38;;;;;;;;;;;;;;;8.13;100.00;101148.69;6184883;23;19931;-74
2024/03/18 00:11:04;;;;;;;;;;;;;;;8.12;100.00;101150.53;6185694;23;19912;-73
2024/03/18 00:13:32;;;;;;;;;;;;;;;8.16;100.00;101148.34;6183605;23;19974;-73
2024/03/18 00:15:57;;;;;;;;;;;;;;;8.15;100.00;101152.88;6184523;23;20019;-73
2024/03/18 00:18:22;;;;;;;;;;;;;;;8.13;100.00;101146.84;6185649;23;20016;-73
2024/03/18 00:20:47;;;;;;;;;;;;;;;8.09;100.00;101148.19;6182859;23;19916;-73
2024/03/18 00:23:13;;;;;;;;;;;;;;;8.04;100.00;101148.72;6184601;23;19921;-73
2024/03/18 00:25:38;;;;;;;;;;;;;;;8.00;100.00;101144.72;6185653;23;19975;-73
2024/03/18 00:28:04;;;;;;;;;;;;;;;8.06;100.00;101147.72;6183434;23;19912;-73
2024/03/18 00:30:29;;;;;;;;;;;;;;;8.02;100.00;101153.41;6184561;23;19971;-73
2024/03/18 00:32:54;;;;;;;;;;;;;;;7.95;100.00;101135.50;6185666;23;20203;-73
2024/03/18 00:35:20;;;;;;;;;;;;;;;7.88;100.00;101151.44;6182907;23;20340;-73
2024/03/18 00:37:45;;;;;;;;;;;;;;;7.89;100.00;101148.59;6184732;23;20325;-73
2024/03/18 00:40:13;;;;;;;;;;;;;;;7.83;100.00;101151.13;6185477;23;19944;-73
2024/03/18 00:42:38;;;;;;;;;;;;;;;7.90;100.00;101144.09;6182837;23;20333;-73
2024/03/18 00:45:04;;;;;;;;;;;;;;;7.85;100.00;101136.53;6183703;23;19919;-73
2024/03/18 00:47:29;;;;;;;;;;;;;;;7.82;100.00;101130.69;6185806;23;19912;-72
2024/03/18 00:49:57;;;;;;;;;;;;;;;7.80;100.00;101133.56;6183088;23;19955;-72
2024/03/18 00:52:22;;;;;;;;;;;;;;;7.78;100.00;101132.88;6186139;23;19912;-72
2024/03/18 00:54:57;;;;;;;;;;;;;;;7.77;100.00;101122.31;6187002;23;20270;-73
2024/03/18 00:57:22;;;;;;;;;;;;;;;7.72;100.00;101126.38;6186198;23;19983;-72
2024/03/18 00:59:47;;;;;;;;;;;;;;;7.69;100.00;101129.38;6186259;23;20371;-72
2024/03/18 01:02:13;;;;;;;;;;;;;;;7.68;100.00;101130.41;6186520;23;20077;-73
2024/03/18 01:04:38;;;;;;;;;;;;;;;7.71;100.00;101122.03;6186065;23;20007;-72
2024/03/18 01:07:03;;;;;;;;;;;;;;;7.73;100.00;101117.31;6186398;23;19998;-73
2024/03/18 01:09:28;;;;;;;;;;;;;;;7.64;100.00;101118.34;6185986;23;20321;-72
2024/03/18 01:11:54;;;;;;;;;;;;;;;7.67;100.00;101117.19;6185641;23;19916;-72
2024/03/18 01:14:19;;;;;;;;;;;;;;;7.67;100.00;101118.00;6186099;23;19970;-72
2024/03/18 01:16:45;;;;;;;;;;;;;;;7.76;100.00;101107.28;6186021;23;19927;-72
2024/03/18 01:19:10;;;;;;;;;;;;;;;7.81;100.00;101112.94;6186109;23;19908;-73
2024/03/18 01:21:35;;;;;;;;;;;;;;;7.78;100.00;101110.59;6185989;23;19963;-73
2024/03/18 01:24:00;;;;;;;;;;;;;;;7.79;100.00;101107.75;6186249;23;19913;-72
2024/03/18 01:26:27;;;;;;;;;;;;;;;7.73;100.00;101103.94;6186720;23;20218;-73
2024/03/18 01:28:52;;;;;;;;;;;;;;;7.77;100.00;101100.88;6186139;23;19966;-72
2024/03/18 01:31:18;;;;;;;;;;;;;;;7.87;100.00;101094.31;6186218;23;19912;-72
2024/03/18 01:33:43;;;;;;;;;;;;;;;7.86;100.00;101092.63;6186420;23;19919;-72
2024/03/18 01:36:11;;;;;;;;;;;;;;;7.92;100.00;101104.53;6186258;23;19912;-72
2024/03/18 01:38:36;;;;;;;;;;;;;;;7.92;100.00;101099.19;6186107;23;19944;-72
2024/03/18 01:41:01;;;;;;;;;;;;;;;7.87;100.00;101096.19;6201575;23;19913;-72
2024/03/18 01:43:27;;;;;;;;;;;;;;;7.92;100.00;101084.91;6188603;23;20241;-72
2024/03/18 01:45:52;;;;;;;;;;;;;;;7.92;100.00;101088.47;6186095;23;19966;-72
2024/03/18 01:48:17;;;;;;;;;;;;;;;7.89;100.00;101083.44;6186192;23;19928;-72
2024/03/18 01:50:42;;;;;;;;;;;;;;;8.00;100.00;101088.41;6154090;23;19920;-73
2024/03/18 01:53:11;;;;;;;;;;;;;;;8.01;100.00;101079.34;6155633;23;19912;-72
2024/03/18 01:55:40;;;;;;;;;;;;;;;8.04;100.00;101087.06;6156346;23;19912;-72
2024/03/18 01:58:06;;;;;;;;;;;;;;;8.01;100.00;101084.72;6155821;23;19996;-72
2024/03/18 02:00:37;;;;;;;;;;;;;;;8.00;100.00;101080.38;6155649;23;19913;-72
2024/03/18 02:03:02;;;;;;;;;;;;;;;8.01;100.00;101079.34;6131628;23;19932;-72
2024/03/18 02:05:28;;;;;;;;;;;;;;;8.06;100.00;101078.00;6155103;23;19938;-72
2024/03/18 02:07:53;;;;;;;;;;;;;;;8.07;100.00;101068.94;6156184;23;19913;-72
2024/03/18 02:10:19;;;;;;;;;;;;;;;8.09;100.00;101069.63;6156362;23;19919;-72
2024/03/18 02:12:44;;;;;;;;;;;;;;;8.12;100.00;101067.41;6154471;23;20003;-72
2024/03/18 02:15:12;;;;;;;;;;;;;;;8.09;100.00;101066.94;6155380;23;19951;-72
2024/03/18 02:17:38;;;;;;;;;;;;;;;8.12;100.00;101066.59;6156035;23;19999;-72
2024/03/18 02:20:04;;;;;;;;;;;;;;;8.12;100.00;101062.03;6155040;23;19951;-72
2024/03/18 02:22:29;;;;;;;;;;;;;;;8.16;100.00;101073.25;6155835;23;19913;-73
2024/03/18 02:24:54;;;;;;;;;;;;;;;8.16;100.00;101068.72;6155775;23;19917;-72
2024/03/18 02:27:19;;;;;;;;;;;;;;;8.10;100.00;101057.88;6154644;23;20014;-73
2024/03/18 02:29:44;;;;;;;;;;;;;;;8.16;100.00;101062.53;6156014;23;19936;-71
2024/03/18 02:32:10;;;;;;;;;;;;;;;8.12;100.00;101058.53;6156985;23;19913;-72
2024/03/18 02:34:35;;;;;;;;;;;;;;;8.16;100.00;101067.88;6154449;23;19924;-72
2024/03/18 02:37:01;;;;;;;;;;;;;;;8.22;100.00;101067.19;6155236;23;19958;-72
2024/03/18 02:39:26;;;;;;;;;;;;;;;8.18;100.00;101061.34;6156755;23;19967;-72
2024/03/18 02:41:52;;;;;;;;;;;;;;;8.18;100.00;101057.81;6154390;23;19947;-72
2024/03/18 02:44:17;;;;;;;;;;;;;;;8.24;100.00;101056.28;6155538;23;19912;-72
2024/03/18 02:46:43;;;;;;;;;;;;;;;8.28;100.00;101062.97;6156458;23;20219;-72
2024/03/18 02:49:08;;;;;;;;;;;;;;;8.25;100.00;101058.81;6154302;23;19940;-73
2024/03/18 02:51:33;;;;;;;;;;;;;;;8.23;100.00;101052.78;6155576;23;19920;-72
2024/03/18 02:53:58;;;;;;;;;;;;;;;8.22;100.00;101039.53;6156387;23;20324;-72
2024/03/18 02:56:24;;;;;;;;;;;;;;;8.25;100.00;101047.22;6154128;23;19913;-73
2024/03/18 02:58:49;;;;;;;;;;;;;;;8.29;100.00;101043.19;6155361;23;19920;-72
2024/03/18 03:01:14;;;;;;;;;;;;;;;8.32;100.00;101045.50;6156753;23;19912;-72
2024/03/18 03:03:39;;;;;;;;;;;;;;;8.30;100.00;101044.84;6154881;23;20281;-72
2024/03/18 03:06:06;;;;;;;;;;;;;;;8.30;100.00;101043.00;6155264;23;20328;-72
2024/03/18 03:08:31;;;;;;;;;;;;;;;8.34;100.00;101032.75;6155644;23;20055;-72
2024/03/18 03:10:56;;;;;;;;;;;;;;;8.33;100.00;101042.63;6153992;23;20317;-72
2024/03/18 03:13:22;;;;;;;;;;;;;;;8.30;100.00;101032.25;6155109;23;19940;-72
2024/03/18 03:15:47;;;;;;;;;;;;;;;8.26;100.00;101041.69;6154642;23;19920;-74
2024/03/18 03:18:14;;;;;;;;;;;;;;;8.25;100.00;101039.16;6155746;23;19923;-74
2024/03/18 03:20:39;;;;;;;;;;;;;;;8.22;100.00;101034.16;6154890;23;19913;-74
2024/03/18 03:23:04;;;;;;;;;;;;;;;8.26;100.00;101032.78;6154936;23;19920;-74
2024/03/18 03:25:29;;;;;;;;;;;;;;;8.28;100.00;101028.94;6155230;23;20032;-73
2024/03/18 03:27:58;;;;;;;;;;;;;;;8.29;100.00;101019.88;6155104;23;19920;-73
2024/03/18 03:30:23;;;;;;;;;;;;;;;8.30;100.00;101026.91;6155182;23;19912;-73
2024/03/18 03:32:48;;;;;;;;;;;;;;;8.34;100.00;101022.84;6155697;23;19920;-73
2024/03/18 03:35:13;;;;;;;;;;;;;;;8.40;100.00;101025.84;6154669;23;19913;-73
2024/03/18 03:37:39;;;;;;;;;;;;;;;8.35;100.00;101029.06;6154957;23;20340;-73
2024/03/18 03:40:04;;;;;;;;;;;;;;;8.35;100.00;101029.88;6155931;23;20395;-75
2024/03/18 03:42:30;;;;;;;;;;;;;;;8.38;100.00;101028.72;6155072;23;19913;-74
2024/03/18 03:44:55;;;;;;;;;;;;;;;8.42;100.00;101018.47;6154168;23;20332;-74
2024/03/18 03:47:21;;;;;;;;;;;;;;;8.35;100.00;101027.22;6158153;23;19917;-73
2024/03/18 03:49:46;;;;;;;;;;;;;;;8.33;100.00;101020.34;6165616;23;19924;-73
2024/03/18 03:52:11;;;;;;;;;;;;;;;8.26;100.00;101009.50;6156614;23;19912;-73
2024/03/18 03:54:37;;;;;;;;;;;;;;;8.34;100.00;101016.66;6155167;23;19947;-73
2024/03/18 03:57:02;;;;;;;;;;;;;;;8.32;100.00;101014.16;6153773;23;19920;-73
2024/03/18 03:59:27;;;;;;;;;;;;;;;8.33;100.00;101020.34;6153902;23;20383;-73
2024/03/18 04:01:54;;;;;;;;;;;;;;;8.38;100.00;101011.78;6155185;23;20302;-73
2024/03/18 04:04:19;;;;;;;;;;;;;;;8.37;100.00;101016.31;6154140;23;20233;-73
2024/03/18 04:06:45;;;;;;;;;;;;;;;8.40;100.00;101017.78;6153365;23;19917;-73
2024/03/18 04:09:10;;;;;;;;;;;;;;;8.43;100.00;101014.75;6154770;23;20314;-73
2024/03/18 04:11:36;;;;;;;;;;;;;;;8.41;100.00;101016.78;6153978;23;19916;-73
2024/03/18 04:14:01;;;;;;;;;;;;;;;8.39;100.00;101019.63;6153534;23;20280;-74
2024/03/18 04:16:27;;;;;;;;;;;;;;;8.44;100.00;101019.94;6155326;23;20316;-73
2024/03/18 04:18:52;;;;;;;;;;;;;;;8.44;100.00;101022.63;6152647;23;19913;-73
2024/03/18 04:21:18;;;;;;;;;;;;;;;8.43;100.00;101025.50;6153992;23;19983;-73
2024/03/18 04:23:43;;;;;;;;;;;;;;;8.45;100.00;101026.16;6155398;23;20317;-73
2024/03/18 04:26:08;;;;;;;;;;;;;;;8.46;100.00;101017.09;6154451;23;19913;-74
2024/03/18 04:28:33;;;;;;;;;;;;;;;8.35;100.00;101018.34;6155759;23;19971;-73
2024/03/18 04:31:00;;;;;;;;;;;;;;;8.40;100.00;101021.31;6157496;23;19916;-73
2024/03/18 04:33:25;;;;;;;;;;;;;;;8.42;100.00;101021.13;6155029;23;19987;-73
2024/03/18 04:35:51;;;;;;;;;;;;;;;8.35;100.00;101013.78;6155526;23;19936;-74
2024/03/18 04:38:16;;;;;;;;;;;;;;;8.38;100.00;101015.31;6157168;23;19913;-73
2024/03/18 04:40:41;;;;;;;;;;;;;;;8.43;100.00;101009.41;6154508;23;19916;-74
2024/03/18 04:43:09;;;;;;;;;;;;;;;8.36;100.00;101011.97;6155601;23;19913;-74
2024/03/18 04:45:35;;;;;;;;;;;;;;;8.38;100.00;101006.41;6156674;23;19999;-74
2024/03/18 04:48:00;;;;;;;;;;;;;;;8.43;100.00;101012.09;6154743;23;19944;-74
2024/03/18 04:50:25;;;;;;;;;;;;;;;8.42;100.00;101013.09;6155573;23;20564;-74
2024/03/18 04:52:51;;;;;;;;;;;;;;;8.43;100.00;101004.03;6155622;23;20426;-74
2024/03/18 04:55:17;;;;;;;;;;;;;;;8.38;100.00;101001.91;6155142;23;19916;-75
2024/03/18 04:57:42;;;;;;;;;;;;;;;8.37;100.00;101010.09;6155561;23;20256;-75
2024/03/18 05:00:11;;;;;;;;;;;;;;;8.39;100.00;101013.44;6156756;23;19912;-73
2024/03/18 05:02:37;;;;;;;;;;;;;;;8.30;100.00;101005.44;6155572;23;19913;-72
2024/03/18 05:05:02;;;;;;;;;;;;;;;8.39;100.00;101006.22;6156089;23;20317;-72
2024/03/18 05:07:28;;;;;;;;;;;;;;;8.39;100.00;101013.44;6158073;23;19931;-73
2024/03/18 05:09:53;;;;;;;;;;;;;;;8.34;100.00;101004.06;6155080;23;20393;-72
2024/03/18 05:12:19;;;;;;;;;;;;;;;8.35;100.00;101003.06;6155195;23;19913;-72
2024/03/18 05:14:44;;;;;;;;;;;;;;;8.39;100.00;101008.91;6155345;23;19913;-73
2024/03/18 05:17:09;;;;;;;;;;;;;;;8.43;100.00;101012.09;6154728;23;19917;-72
2024/03/18 05:19:34;;;;;;;;;;;;;;;8.40;100.00;101004.38;6154852;23;19958;-72
2024/03/18 05:21:59;;;;;;;;;;;;;;;8.39;100.00;101010.75;6156222;23;19913;-72
2024/03/18 05:24:25;;;;;;;;;;;;;;;8.39;100.00;101013.44;6155359;23;19917;-72
2024/03/18 05:26:50;;;;;;;;;;;;;;;8.42;100.00;101010.41;6155046;23;19951;-73
2024/03/18 05:29:15;;;;;;;;;;;;;;;8.38;100.00;101014.47;6154694;23;19923;-73
2024/03/18 05:31:41;;;;;;;;;;;;;;;8.38;100.00;101017.13;6155737;23;19987;-73
2024/03/18 05:34:08;;;;;;;;;;;;;;;8.29;100.00;101019.88;6155366;23;20009;-73
2024/03/18 05:36:33;;;;;;;;;;;;;;;8.34;100.00;101027.41;6154562;23;19916;-73
2024/03/18 05:38:59;;;;;;;;;;;;;;;8.39;100.00;101024.19;6155993;23;20277;-72
2024/03/18 05:41:24;;;;;;;;;;;;;;;8.44;100.00;101027.97;6154746;23;20277;-73
2024/03/18 05:43:50;;;;;;;;;;;;;;;8.46;100.00;101030.50;6155377;23;19967;-72
2024/03/18 05:46:17;;;;;;;;;;;;;;;8.48;100.00;101028.47;6155944;23;19996;-72
2024/03/18 05:48:43;;;;;;;;;;;;;;;8.45;100.00;101029.66;6159695;23;19923;-73
2024/03/18 05:51:14;;;;;;;;;;;;;;;8.46;100.00;101038.56;6174447;23;19924;-73
2024/03/18 05:53:40;;;;;;;;;;;;;;;8.49;100.00;101031.00;6165197;23;19944;-73
2024/03/18 05:56:06;;;;;;;;;;;;;;;8.51;100.00;101030.00;6164346;23;19912;-73
2024/03/18 05:58:37;;;;;;;;;;;;;;;8.49;100.00;101035.53;6173218;23;19912;-73
2024/03/18 06:01:03;;;;;;;;;;;;;;;8.51;100.00;101035.38;6158307;23;19940;-73
2024/03/18 06:03:30;;;;;;;;;;;;;;;8.54;100.00;101037.69;6155998;23;19913;-73
2024/03/18 06:05:56;;;;;;;;;;;;;;;8.55;100.00;101042.88;6155344;23;19923;-73
2024/03/18 06:08:25;;;;;;;;;;;;;;;8.56;100.00;101039.16;6157329;23;19913;-73
2024/03/18 06:10:52;;;;;;;;;;;;;;;8.54;100.00;101040.38;6156886;23;19928;-73
2024/03/18 06:13:17;;;;;;;;;;;;;;;8.55;100.00;101037.50;6154205;23;19913;-72
2024/03/18 06:15:42;;;;;;;;;;;;;;;8.59;100.00;101030.78;6156011;23;19944;-72
2024/03/18 06:18:08;;;;;;;;;;;;;;;8.57;100.00;101038.16;6155476;23;19915;-73
2024/03/18 06:20:33;;;;;;;;;;;;;;;8.55;100.00;101037.50;6154165;23;19913;-73
2024/03/18 06:22:58;;;;;;;;;;;;;;;8.62;100.00;101041.16;6154438;23;19995;-73
2024/03/18 06:28:08;;;;;;;;;;;;;;;8.62;100.00;101034.94;6156152;23;19966;-73
2024/03/18 06:30:34;;;;;;;;;;;;;;;8.66;100.00;101041.63;6156030;23;20327;-73
2024/03/18 06:32:59;;;;;;;;;;;;;;;8.62;100.00;101041.16;6153783;23;20352;-73
2024/03/18 06:35:25;;;;;;;;;;;;;;;8.71;100.00;101046.44;6155060;23;19912;-74
2024/03/18 06:37:50;;;;;;;;;;;;;;;8.74;100.00;101049.59;6155846;23;20270;-73
2024/03/18 06:40:18;;;;;;;;;;;;;;;8.75;100.00;101045.06;6154549;23;20343;-74
2024/03/18 06:42:43;;;;;;;;;;;;;;;8.76;100.00;101041.38;6154934;23;19919;-74
2024/03/18 06:45:09;;;;;;;;;;;;;;;8.86;100.00;101041.94;6155999;23;19912;-74
2024/03/18 06:47:34;;;;;;;;;;;;;;;8.94;100.00;101049.94;6154100;23;19931;-73
2024/03/18 06:49:59;;;;;;;;;;;;;;;8.95;100.00;101048.94;6154664;23;19927;-74
2024/03/18 06:52:28;;;;;;;;;;;;;;;9.05;100.00;101055.88;6156376;23;19912;-73
2024/03/18 06:54:53;;;;;;;;;;;;;;;9.03;100.00;101055.22;6153586;23;20310;-74
2024/03/18 06:57:19;;;;;;;;;;;;;;;9.09;100.00;101057.19;6154519;23;19912;-74
2024/03/18 06:59:44;;;;;;;;;;;;;;;9.08;100.00;101051.00;6156724;23;19912;-73
2024/03/18 07:02:09;;;;;;;;;;;;;;;9.12;100.00;101056.84;6153795;23;20249;-73
2024/03/18 07:04:34;;;;;;;;;;;;;;;9.13;100.00;101052.28;6154858;23;20237;-73
2024/03/18 07:07:00;;;;;;;;;;;;;;;9.15;100.00;101056.47;6153712;23;20241;-74
2024/03/18 07:09:25;;;;;;;;;;;;;;;9.13;100.00;101057.66;6153702;23;19944;-74
2024/03/18 07:11:50;;;;;;;;;;;;;;;9.16;100.00;101063.53;6154849;23;20309;-73
2024/03/18 07:14:16;;;;;;;;;;;;;;;9.20;100.00;101063.97;6155373;23;20336;-74
2024/03/18 07:16:41;;;;;;;;;;;;;;;9.18;100.00;101061.47;6154049;23;20344;-74
2024/03/18 07:19:07;;;;;;;;;;;;;;;9.20;100.00;101064.81;6154433;23;19995;-74
2024/03/18 07:21:32;;;;;;;;;;;;;;;9.19;100.00;101063.13;6155525;23;19913;-73
2024/03/18 07:23:59;;;;;;;;;;;;;;;9.19;100.00;101060.44;6154116;23;19932;-74
2024/03/18 07:26:29;;;;;;;;;;;;;;;9.16;100.00;101058.16;6154151;23;19995;-74
2024/03/18 07:28:54;;;;;;;;;;;;;;;9.29;100.00;101054.00;6152756;23;19920;-74
2024/03/18 07:31:19;;;;;;;;;;;;;;;9.17;100.00;101059.81;6154077;23;20185;-73
2024/03/18 07:33:45;;;;;;;;;;;;;;;9.27;100.00;101064.09;6154511;23;19966;-74
2024/03/18 07:36:10;;;;;;;;;;;;;;;9.32;100.00;101057.13;6154100;23;19960;-74
2024/03/18 07:38:36;;;;;;;;;;;;;;;9.35;100.00;101061.31;6154866;23;19916;-73
2024/03/18 07:41:01;;;;;;;;;;;;;;;9.30;100.00;101059.16;6154251;23;19947;-74
2024/03/18 07:43:26;;;;;;;;;;;;;;;9.35;100.00;101055.97;6154195;23;19940;-74
2024/03/18 07:45:51;;;;;;;;;;;;;;;9.37;100.00;101060.13;6154603;23;19916;-73
2024/03/18 07:48:17;;;;;;;;;;;;;;;9.43;100.00;101063.91;6153900;23;19917;-74
2024/03/18 07:50:42;;;;;;;;;;;;;;;9.44;100.00;101062.91;6154014;23;19921;-74
2024/03/18 07:53:07;;;;;;;;;;;;;;;9.50;100.00;101064.84;6154811;23;20515;-73
2024/03/18 07:55:32;;;;;;;;;;;;;;;9.53;100.00;101061.78;6154076;23;19913;-74
2024/03/18 07:57:59;;;;;;;;;;;;;;;9.56;100.00;101061.41;6153940;23;19916;-73
2024/03/18 08:00:24;;;;;;;;;;;;;;;9.68;100.00;101066.34;6154458;23;19916;-73
2024/03/18 08:02:49;;;;;;;;;;;;;;;9.59;100.00;101062.06;6154127;23;20134;-73
2024/03/18 08:05:15;;;;;;;;;;;;;;;9.75;100.00;101067.25;6157269;23;19932;-73
2024/03/18 08:07:40;;;;;;;;;;;;;;;9.90;100.00;101069.94;6161853;23;19916;-73
2024/03/18 08:10:05;;;;;;;;;;;;;;;10.00;100.00;101064.28;6154665;23;19975;-73
2024/03/18 08:12:31;;;;;;;;;;;;;;;9.94;100.00;101065.00;6153206;23;20266;-73
2024/03/18 08:14:56;;;;;;;;;;;;;;;10.08;100.00;101066.84;6155196;23;19916;-74
2024/03/18 08:17:21;;;;;;;;;;;;;;;10.22;100.00;101069.72;6153411;23;19963;-74
2024/03/18 08:19:46;;;;;;;;;;;;;;;10.37;100.00;101075.03;6153330;23;19916;-74
2024/03/18 08:22:16;;;;;;;;;;;;;;;10.42;100.00;101060.00;6154681;23;19943;-74
2024/03/18 08:24:48;;;;;;;;;;;;;;;10.48;100.00;101060.28;6153962;23;19912;-74
2024/03/18 08:27:13;;;;;;;;;;;;;;;10.67;100.00;101058.81;6152977;23;19920;-74
2024/03/18 08:29:38;;;;;;;;;;;;;;;10.66;100.00;101066.06;6155018;23;19917;-74
2024/03/18 08:32:04;;;;;;;;;;;;;;;10.76;100.00;101058.50;6153427;23;19913;-74
2024/03/18 08:34:29;;;;;;;;;;;;;;;10.91;100.00;101060.28;6153493;23;20280;-74
2024/03/18 08:36:55;;;;;;;;;;;;;;;11.11;100.00;101065.00;6154835;23;19917;-73
2024/03/18 08:39:20;;;;;;;;;;;;;;;11.28;100.00;101061.00;6153130;23;20281;-74
2024/03/18 08:41:46;;;;;;;;;;;;;;;11.36;100.00;101060.81;6153493;23;20449;-74
2024/03/18 08:44:11;;;;;;;;;;;;;;;11.69;100.00;101067.47;6155165;23;19913;-74
2024/03/18 08:46:36;;;;;;;;;;;;;;;11.81;100.00;101067.72;6153016;23;20352;-74
2024/03/18 08:49:01;;;;;;;;;;;;;;;11.94;100.00;101081.28;6153010;23;20369;-75
2024/03/18 08:51:26;;;;;;;;;;;;;;;11.45;100.00;101077.66;6154943;23;19912;-73
2024/03/18 08:53:52;;;;;;;;;;;;;;;11.78;100.00;101073.53;6152942;23;19920;-73
2024/03/18 08:56:17;;;;;;;;;;;;;;;11.86;100.00;101083.31;6154020;23;19932;-73
2024/03/18 08:58:42;;;;;;;;;;;;;;;11.93;100.00;101078.75;6155237;23;19912;-73
2024/03/18 09:01:08;;;;;;;;;;;;;;;11.69;100.00;101072.84;6152937;23;19940;-73
2024/03/18 09:03:34;;;;;;;;;;;;;;;11.82;100.00;101078.31;6153603;23;20381;-73
2024/03/18 09:05:59;;;;;;;;;;;;;;;12.00;100.00;101078.84;6154406;23;19967;-73
2024/03/18 09:08:24;;;;;;;;;;;;;;;11.83;100.00;101079.13;6153077;23;19916;-73
2024/03/18 09:10:51;;;;;;;;;;;;;;;11.80;100.00;101079.56;6154077;23;19956;-74
2024/03/18 09:13:16;;;;;;;;;;;;;;;11.78;100.00;101081.63;6156057;23;20029;-73
2024/03/18 09:15:41;;;;;;;;;;;;;;;11.84;100.00;101080.78;6154829;23;20361;-73
2024/03/18 09:18:06;;;;;;;;;;;;;;;11.79;100.00;101077.88;6155358;23;19920;-73
2024/03/18 09:20:32;;;;;;;;;;;;;;;11.94;100.00;101069.63;6156494;23;19995;-73
2024/03/18 09:22:57;;;;;;;;;;;;;;;12.02;100.00;101087.56;6154941;23;19967;-72
2024/03/18 09:25:22;;;;;;;;;;;;;;;11.82;100.00;101080.19;6155541;23;19920;-72
2024/03/18 09:27:48;;;;;;;;;;;;;;;11.51;100.00;101082.28;6155954;23;19913;-74
2024/03/18 09:30:13;;;;;;;;;;;;;;;11.77;100.00;101085.34;6155220;23;19920;-73
2024/03/18 09:32:38;;;;;;;;;;;;;;;11.59;100.00;101089.38;6155929;23;20278;-73
2024/03/18 09:35:05;;;;;;;;;;;;;;;11.88;100.00;101082.06;6156483;23;19916;-72
2024/03/18 09:37:30;;;;;;;;;;;;;;;11.99;100.00;101086.09;6154871;23;20344;-74
2024/03/18 09:39:55;;;;;;;;;;;;;;;12.24;100.00;101097.19;6154880;23;19916;-74
2024/03/18 09:42:21;;;;;;;;;;;;;;;12.90;100.00;101097.56;6155888;23;19913;-74
2024/03/18 09:44:46;;;;;;;;;;;;;;;13.25;100.00;101102.78;6155039;23;20339;-73
2024/03/18 09:47:24;;;;;;;;;;;;;;;13.25;100.00;101102.78;6128796;23;19912;-73
2024/03/18 09:49:49;;;;;;;;;;;;;;;13.09;100.00;101112.13;6155219;23;19916;-73
2024/03/18 09:52:15;;;;;;;;;;;;;;;12.55;100.00;101100.41;6156062;23;19913;-74
2024/03/18 09:54:41;;;;;;;;;;;;;;;13.17;100.00;101101.13;6154955;23;19919;-73
2024/03/18 09:57:11;;;;;;;;;;;;;;;13.12;100.00;101095.50;6128931;23;19940;-73
2024/03/18 09:59:38;;;;;;;;;;;;;;;13.37;99.29;101104.84;6129936;23;19937;-74
2024/03/18 10:02:03;;;;;;;;;;;;;;;13.07;99.71;101099.84;6155171;23;19912;-73
2024/03/18 10:04:29;;;;;;;;;;;;;;;13.04;100.00;101101.13;6154547;23;19920;-74
2024/03/18 10:06:56;;;;;;;;;;;;;;;12.66;100.00;101099.00;6155976;23;19919;-74
2024/03/18 10:09:22;;;;;;;;;;;;;;;12.63;100.00;101099.38;6155563;23;20330;-74
2024/03/18 10:11:48;;;;;;;;;;;;;;;12.59;100.00;101101.69;6155168;23;20336;-74
2024/03/18 10:14:13;;;;;;;;;;;;;;;12.38;100.00;101102.63;6170601;23;19949;-73
2024/03/18 10:16:39;;;;;;;;;;;;;;;12.52;100.00;101098.13;6164147;23;19924;-74
2024/03/18 10:19:06;;;;;;;;;;;;;;;12.36;100.00;101100.16;6155746;23;19919;-75
2024/03/18 10:21:31;;;;;;;;;;;;;;;12.29;100.00;101110.09;6155906;23;19913;-73
2024/03/18 10:23:56;;;;;;;;;;;;;;;12.21;100.00;101092.19;6154545;23;19951;-74
2024/03/18 10:26:21;;;;;;;;;;;;;;;12.16;100.00;101102.78;6154146;23;19913;-74
2024/03/18 10:28:47;;;;;;;;;;;;;;;12.02;100.00;101101.03;6156406;23;19966;-74
2024/03/18 10:31:13;;;;;;;;;;;;;;;12.05;100.00;101104.19;6154975;23;20372;-73
2024/03/18 10:33:38;;;;;;;;;;;;;;;12.04;100.00;101104.38;6154103;23;20322;-74
2024/03/18 10:36:04;;;;;;;;;;;;;;;11.89;100.00;101105.31;6129742;23;19951;-72
2024/03/18 10:38:29;;;;;;;;;;;;;;;11.74;100.00;101099.22;6154887;23;19912;-73
2024/03/18 10:40:54;;;;;;;;;;;;;;;11.89;100.00;101112.59;6127994;23;19913;-74
2024/03/18 10:43:32;;;;;;;;;;;;;;;11.85;100.00;101114.84;6156313;23;19999;-73
2024/03/18 10:45:57;;;;;;;;;;;;;;;11.79;100.00;101110.25;6153922;23;19916;-73
2024/03/18 10:48:23;;;;;;;;;;;;;;;11.92;100.00;101118.41;6154278;23;19987;-73
2024/03/18 10:50:48;;;;;;;;;;;;;;;12.35;100.00;101117.38;6129771;23;19916;-73
2024/03/18 10:53:18;;;;;;;;;;;;;;;12.46;100.00;101125.91;6153735;23;19912;-73
2024/03/18 10:55:44;;;;;;;;;;;;;;;12.88;99.58;101129.34;6154747;23;19916;-73
2024/03/18 10:58:09;;;;;;;;;;;;;;;13.00;99.40;101126.88;6155804;23;19919;-73
2024/03/18 11:00:34;;;;;;;;;;;;;;;13.01;100.00;101133.97;6153421;23;19912;-74
2024/03/18 11:03:00;;;;;;;;;;;;;;;12.76;100.00;101131.00;6154989;23;19919;-73
2024/03/18 11:05:29;;;;;;;;;;;;;;;12.40;100.00;101127.56;6156271;23;19943;-73
2024/03/18 11:07:58;;;;;;;;;;;;;;;12.60;100.00;101138.44;6153290;23;20417;-74
2024/03/18 11:10:26;;;;;;;;;;;;;;;12.38;99.68;101129.63;6154608;23;19959;-73
2024/03/18 11:12:51;;;;;;;;;;;;;;;12.25;100.00;101133.97;6156122;23;19913;-74
2024/03/18 11:15:17;;;;;;;;;;;;;;;12.35;100.00;101128.19;6153466;23;19919;-74
2024/03/18 11:17:44;;;;;;;;;;;;;;;12.66;100.00;101136.81;6154835;23;19913;-73
2024/03/18 11:20:16;;;;;;;;;;;;;;;12.56;100.00;101132.59;6156239;23;19959;-74
2024/03/18 11:23:01;;;;;;;;;;;;;;;12.42;100.00;101137.16;6153502;23;20258;-74
2024/03/18 11:25:28;;;;;;;;;;;;;;;12.32;100.00;101141.25;6154171;23;19940;-73
2024/03/18 11:27:54;;;;;;;;;;;;;;;12.21;100.00;101143.47;6155562;23;20284;-73
2024/03/18 11:30:26;;;;;;;;;;;;;;;12.41;100.00;101145.44;6154136;23;19920;-74
2024/03/18 11:32:52;;;;;;;;;;;;;;;13.46;98.65;101150.41;6128179;23;19921;-74
2024/03/18 11:35:17;;;;;;;;;;;;;;;14.73;89.48;101151.13;6154981;23;19975;-74
2024/03/18 11:37:44;;;;;;;;;;;;;;;15.54;82.02;101151.31;6154370;23;20215;-75
2024/03/18 11:40:09;;;;;;;;;;;;;;;16.28;76.18;101155.19;6154733;23;19960;-74
2024/03/18 11:42:34;;;;;;;;;;;;;;;16.82;73.99;101158.84;6154848;23;19916;-74
2024/03/18 11:45:00;;;;;;;;;;;;;;;16.05;77.17;101157.53;6154415;23;19983;-74
2024/03/18 11:47:25;;;;;;;;;;;;;;;16.18;76.77;101159.28;6153097;23;19957;-74
2024/03/18 11:50:00;;;;;;;;;;;;;;;16.23;76.79;101158.59;6154318;23;19916;-73
2024/03/18 11:52:25;;;;;;;;;;;;;;;15.60;79.34;101160.47;6154174;23;20373;-74
2024/03/18 11:54:50;;;;;;;;;;;;;;;15.23;78.41;101149.53;6153860;23;19916;-74
2024/03/18 11:57:16;;;;;;;;;;;;;;;15.23;82.92;101161.19;6128504;23;19971;-74
2024/03/18 11:59:41;;;;;;;;;;;;;;;15.70;78.98;101160.78;6154529;23;20020;-74
2024/03/18 12:02:06;;;;;;;;;;;;;;;15.56;77.02;101165.50;6154604;23;19991;-75
2024/03/18 12:04:33;;;;;;;;;;;;;;;14.79;81.44;101157.53;6127958;23;19913;-74
2024/03/18 12:06:58;;;;;;;;;;;;;;;14.95;79.81;101159.72;6154784;23;19916;-74
2024/03/18 12:09:27;;;;;;;;;;;;;;;13.99;84.60;101156.78;6154151;23;19936;-74
2024/03/18 12:11:52;;;;;;;;;;;;;;;13.73;89.25;101152.25;6154022;23;19913;-74
2024/03/18 12:14:17;;;;;;;;;;;;;;;13.61;94.18;101162.88;6154352;23;19968;-74
2024/03/18 12:16:44;;;;;;;;;;;;;;;13.35;93.19;101159.13;6153951;23;19913;-73
2024/03/18 12:19:09;;;;;;;;;;;;;;;13.07;95.72;101160.13;6154702;23;19912;-74
2024/03/18 12:21:40;;;;;;;;;;;;;;;13.16;96.60;101156.22;6166621;23;19963;-75
2024/03/18 12:29:36;;;;;;;;;;;;;;;12.71;95.85;101162.16;6154199;23;19975;-74
2024/03/18 12:32:03;;;;;;;;;;;;;;;12.80;94.41;101167.34;6153446;23;19913;-74
2024/03/18 12:34:28;;;;;;;;;;;;;;;12.49;95.10;101158.78;6155181;23;20292;-73